sensor_id;sensor_type;location;lat;lon;timestamp;pressure;altitude;pressure_sealevel;temperature;humidity
829;BME280;396;52.558;13.188;2023-12-28T00:02:01;100545.03;;;5.76;100.00
829;BME280;396;52.558;13.188;2023-12-28T00:04:28;100545.25;;;5.79;100.00
829;BME280;396;52.558;13.188;2023-12-28T00:06:55;100547.44;;;5.77;100.00
829;BME280;396;52.558;13.188;2023-12-28T00:09:21;100534.50;;;5.79;100.00
829;BME280;396;52.558;13.188;2023-12-28T00:11:48;100524.59;;;5.80;100.00
829;BME280;396;52.558;13.188;2023-12-28T00:14:15;100510.06;;;5.86;100.00
829;BME280;396;52.558;13.188;2023-12-28T00:16:41;100515.16;;;5.88;100.00
829;BME280;396;52.558;13.188;2023-12-28T00:19:09;100511.69;;;5.82;100.00
829;BME280;396;52.558;13.188;2023-12-28T00:21:36;100508.72;;;5.83;100.00
829;BME280;396;52.558;13.188;2023-12-28T00:24:03;100508.19;;;5.87;100.00
829;BME280;396;52.558;13.188;2023-12-28T00:26:30;100509.25;;;5.91;100.00
829;BME280;396;52.558;13.188;2023-12-28T00:28:56;100510.63;;;5.98;100.00
829;BME280;396;52.558;13.188;2023-12-28T00:31:23;100514.09;;;6.04;100.00
829;BME280;396;52.558;13.188;2023-12-28T00:33:49;100510.88;;;6.07;100.00
829;BME280;396;52.558;13.188;2023-12-28T00:36:17;100508.41;;;6.11;99.79
829;BME280;396;52.558;13.188;2023-12-28T00:38:44;100496.34;;;6.08;99.98
829;BME280;396;52.558;13.188;2023-12-28T00:41:11;100494.75;;;6.07;99.87
829;BME280;396;52.558;13.188;2023-12-28T00:43:37;100491.22;;;6.12;99.40
829;BME280;396;52.558;13.188;2023-12-28T00:46:04;100483.16;;;6.12;98.91
829;BME280;396;52.558;13.188;2023-12-28T00:48:30;100493.91;;;6.12;99.21
829;BME280;396;52.558;13.188;2023-12-28T00:50:57;100497.13;;;6.14;98.67
829;BME280;396;52.558;13.188;2023-12-28T00:53:26;100503.31;;;6.14;98.35
829;BME280;396;52.558;13.188;2023-12-28T00:55:53;100507.06;;;6.13;98.58
829;BME280;396;52.558;13.188;2023-12-28T00:58:19;100503.03;;;6.11;98.70
829;BME280;396;52.558;13.188;2023-12-28T01:00:46;100503.31;;;6.14;98.45
829;BME280;396;52.558;13.188;2023-12-28T01:03:13;100496.03;;;6.15;98.22
829;BME280;396;52.558;13.188;2023-12-28T01:05:39;100500.34;;;6.11;98.71
829;BME280;396;52.558;13.188;2023-12-28T01:08:06;100493.63;;;6.13;98.68
829;BME280;396;52.558;13.188;2023-12-28T01:10:34;100503.06;;;6.16;98.31
829;BME280;396;52.558;13.188;2023-12-28T01:13:00;100502.50;;;6.14;98.38
829;BME280;396;52.558;13.188;2023-12-28T01:15:27;100497.94;;;6.09;98.69
829;BME280;396;52.558;13.188;2023-12-28T01:17:54;100494.72;;;6.12;98.55
829;BME280;396;52.558;13.188;2023-12-28T01:20:20;100487.72;;;6.11;98.59
829;BME280;396;52.558;13.188;2023-12-28T01:22:47;100490.94;;;6.13;98.20
829;BME280;396;52.558;13.188;2023-12-28T01:25:15;100492.53;;;6.14;98.16
829;BME280;396;52.558;13.188;2023-12-28T01:27:43;100500.06;;;6.17;97.80
829;BME280;396;52.558;13.188;2023-12-28T01:30:09;100498.19;;;6.18;97.64
829;BME280;396;52.558;13.188;2023-12-28T01:32:36;100494.69;;;6.17;97.75
829;BME280;396;52.558;13.188;2023-12-28T01:35:02;100491.72;;;6.19;97.47
829;BME280;396;52.558;13.188;2023-12-28T01:37:28;100490.09;;;6.23;97.13
829;BME280;396;52.558;13.188;2023-12-28T01:39:56;100478.00;;;6.25;96.34
829;BME280;396;52.558;13.188;2023-12-28T01:42:23;100456.50;;;6.20;95.46
829;BME280;396;52.558;13.188;2023-12-28T01:44:51;100462.97;;;6.14;95.27
829;BME280;396;52.558;13.188;2023-12-28T01:47:18;100453.03;;;6.10;95.50
829;BME280;396;52.558;13.188;2023-12-28T01:49:45;100446.59;;;6.05;96.01
829;BME280;396;52.558;13.188;2023-12-28T01:52:11;100431.84;;;6.03;95.75
829;BME280;396;52.558;13.188;2023-12-28T01:54:38;100420.00;;;5.99;95.95
829;BME280;396;52.558;13.188;2023-12-28T01:57:05;100402.81;;;6.00;96.10
829;BME280;396;52.558;13.188;2023-12-28T01:59:32;100401.22;;;5.94;95.81
829;BME280;396;52.558;13.188;2023-12-28T02:02:01;100411.13;;;6.03;96.16
829;BME280;396;52.558;13.188;2023-12-28T02:04:27;100439.03;;;6.18;95.62
829;BME280;396;52.558;13.188;2023-12-28T02:06:56;100457.53;;;6.29;94.72
829;BME280;396;52.558;13.188;2023-12-28T02:09:23;100463.66;;;6.45;93.38
829;BME280;396;52.558;13.188;2023-12-28T02:11:50;100463.06;;;6.53;92.15
829;BME280;396;52.558;13.188;2023-12-28T02:14:18;100472.72;;;6.60;91.53
829;BME280;396;52.558;13.188;2023-12-28T02:16:46;100479.38;;;6.72;89.76
829;BME280;396;52.558;13.188;2023-12-28T02:19:20;100473.41;;;6.80;88.77
829;BME280;396;52.558;13.188;2023-12-28T02:21:52;100476.06;;;6.91;87.45
829;BME280;396;52.558;13.188;2023-12-28T02:24:18;100485.94;;;7.05;85.87
829;BME280;396;52.558;13.188;2023-12-28T02:26:46;100485.34;;;7.14;85.13
829;BME280;396;52.558;13.188;2023-12-28T02:29:13;100495.72;;;7.25;83.96
829;BME280;396;52.558;13.188;2023-12-28T02:31:46;100483.06;;;7.31;84.03
829;BME280;396;52.558;13.188;2023-12-28T02:34:17;100465.91;;;7.51;81.17
829;BME280;396;52.558;13.188;2023-12-28T02:36:47;100463.94;;;7.62;80.74
829;BME280;396;52.558;13.188;2023-12-28T02:39:15;100453.28;;;7.75;78.60
829;BME280;396;52.558;13.188;2023-12-28T02:41:43;100457.19;;;7.88;77.42
829;BME280;396;52.558;13.188;2023-12-28T02:44:12;100471.94;;;7.96;76.86
829;BME280;396;52.558;13.188;2023-12-28T02:46:39;100474.75;;;8.09;75.46
829;BME280;396;52.558;13.188;2023-12-28T02:49:06;100476.81;;;8.18;74.87
829;BME280;396;52.558;13.188;2023-12-28T02:51:32;100473.78;;;8.24;74.35
829;BME280;396;52.558;13.188;2023-12-28T02:54:01;100463.41;;;8.31;73.42
829;BME280;396;52.558;13.188;2023-12-28T02:56:27;100473.84;;;8.43;72.48
829;BME280;396;52.558;13.188;2023-12-28T02:58:55;100462.19;;;8.48;71.13
829;BME280;396;52.558;13.188;2023-12-28T03:01:23;100468.22;;;8.58;70.59
829;BME280;396;52.558;13.188;2023-12-28T03:03:49;100472.72;;;8.68;69.94
829;BME280;396;52.558;13.188;2023-12-28T03:06:16;100471.63;;;8.69;70.11
829;BME280;396;52.558;13.188;2023-12-28T03:08:43;100471.47;;;8.79;68.87
829;BME280;396;52.558;13.188;2023-12-28T03:11:09;100464.03;;;8.90;68.03
829;BME280;396;52.558;13.188;2023-12-28T03:13:36;100463.28;;;8.84;70.71
829;BME280;396;52.558;13.188;2023-12-28T03:16:03;100470.38;;;8.80;70.70
829;BME280;396;52.558;13.188;2023-12-28T03:18:31;100476.50;;;8.86;71.41
829;BME280;396;52.558;13.188;2023-12-28T03:20:57;100467.16;;;8.78;72.85
829;BME280;396;52.558;13.188;2023-12-28T03:23:24;100473.38;;;8.79;71.45
829;BME280;396;52.558;13.188;2023-12-28T03:25:50;100485.19;;;8.83;72.02
829;BME280;396;52.558;13.188;2023-12-28T03:28:17;100477.31;;;8.87;71.26
829;BME280;396;52.558;13.188;2023-12-28T03:30:44;100474.63;;;8.87;71.88
829;BME280;396;52.558;13.188;2023-12-28T03:33:10;100476.59;;;8.81;73.12
829;BME280;396;52.558;13.188;2023-12-28T03:35:38;100469.34;;;8.76;74.86
829;BME280;396;52.558;13.188;2023-12-28T03:38:05;100482.91;;;8.71;75.29
829;BME280;396;52.558;13.188;2023-12-28T03:40:31;100477.75;;;8.75;74.07
829;BME280;396;52.558;13.188;2023-12-28T03:42:58;100491.63;;;8.68;77.25
829;BME280;396;52.558;13.188;2023-12-28T03:45:24;100484.22;;;8.55;78.86
829;BME280;396;52.558;13.188;2023-12-28T03:47:51;100487.28;;;8.48;80.78
829;BME280;396;52.558;13.188;2023-12-28T03:50:18;100486.84;;;8.41;82.01
829;BME280;396;52.558;13.188;2023-12-28T03:52:46;100484.44;;;8.34;83.14
829;BME280;396;52.558;13.188;2023-12-28T03:55:12;100480.66;;;8.35;81.88
829;BME280;396;52.558;13.188;2023-12-28T03:57:39;100488.75;;;8.35;80.65
829;BME280;396;52.558;13.188;2023-12-28T04:00:09;100477.72;;;8.37;81.85
829;BME280;396;52.558;13.188;2023-12-28T04:02:36;100474.41;;;8.40;78.97
829;BME280;396;52.558;13.188;2023-12-28T04:05:03;100468.38;;;8.48;78.49
829;BME280;396;52.558;13.188;2023-12-28T04:07:30;100477.81;;;8.51;79.06
829;BME280;396;52.558;13.188;2023-12-28T04:09:58;100478.03;;;8.54;78.94
829;BME280;396;52.558;13.188;2023-12-28T04:12:24;100487.72;;;8.55;79.82
829;BME280;396;52.558;13.188;2023-12-28T04:14:51;100491.38;;;8.65;77.14
829;BME280;396;52.558;13.188;2023-12-28T04:17:18;100497.59;;;8.65;78.69
829;BME280;396;52.558;13.188;2023-12-28T04:19:45;100502.69;;;8.67;77.34
829;BME280;396;52.558;13.188;2023-12-28T04:22:11;100502.41;;;8.68;77.00
829;BME280;396;52.558;13.188;2023-12-28T04:24:38;100489.88;;;8.77;76.18
829;BME280;396;52.558;13.188;2023-12-28T04:27:06;100502.19;;;8.83;76.25
829;BME280;396;52.558;13.188;2023-12-28T04:29:32;100512.66;;;8.90;74.73
829;BME280;396;52.558;13.188;2023-12-28T04:31:59;100529.06;;;8.94;74.65
829;BME280;396;52.558;13.188;2023-12-28T04:34:25;100519.59;;;8.96;75.10
829;BME280;396;52.558;13.188;2023-12-28T04:36:52;100515.22;;;9.00;73.93
829;BME280;396;52.558;13.188;2023-12-28T04:39:18;100508.94;;;9.05;72.85
829;BME280;396;52.558;13.188;2023-12-28T04:41:45;100492.63;;;9.10;72.78
829;BME280;396;52.558;13.188;2023-12-28T04:44:13;100502.88;;;9.13;71.82
829;BME280;396;52.558;13.188;2023-12-28T04:46:39;100513.94;;;9.12;72.78
829;BME280;396;52.558;13.188;2023-12-28T04:49:07;100506.94;;;9.10;73.93
829;BME280;396;52.558;13.188;2023-12-28T04:51:34;100509.16;;;9.08;74.36
829;BME280;396;52.558;13.188;2023-12-28T04:54:00;100516.88;;;9.15;72.27
829;BME280;396;52.558;13.188;2023-12-28T04:56:27;100505.50;;;9.18;72.32
829;BME280;396;52.558;13.188;2023-12-28T04:58:54;100503.97;;;9.12;73.35
829;BME280;396;52.558;13.188;2023-12-28T05:01:22;100512.34;;;9.10;73.48
829;BME280;396;52.558;13.188;2023-12-28T05:03:49;100522.13;;;9.06;74.63
829;BME280;396;52.558;13.188;2023-12-28T05:06:16;100513.81;;;9.03;74.75
829;BME280;396;52.558;13.188;2023-12-28T05:08:42;100522.34;;;9.10;73.67
829;BME280;396;52.558;13.188;2023-12-28T05:11:09;100531.94;;;9.21;72.24
829;BME280;396;52.558;13.188;2023-12-28T05:13:35;100524.25;;;9.28;72.07
829;BME280;396;52.558;13.188;2023-12-28T05:16:02;100539.34;;;9.29;72.08
829;BME280;396;52.558;13.188;2023-12-28T05:18:30;100544.19;;;9.32;71.62
829;BME280;396;52.558;13.188;2023-12-28T05:20:57;100548.47;;;9.33;71.58
829;BME280;396;52.558;13.188;2023-12-28T05:23:23;100549.59;;;9.32;71.39
829;BME280;396;52.558;13.188;2023-12-28T05:25:50;100548.47;;;9.33;72.22
829;BME280;396;52.558;13.188;2023-12-28T05:28:16;100536.66;;;9.29;72.49
829;BME280;396;52.558;13.188;2023-12-28T05:30:43;100528.94;;;9.23;73.24
829;BME280;396;52.558;13.188;2023-12-28T05:33:10;100546.81;;;9.19;73.83
829;BME280;396;52.558;13.188;2023-12-28T05:35:38;100563.41;;;9.12;74.75
829;BME280;396;52.558;13.188;2023-12-28T05:38:04;100554.63;;;9.20;73.77
829;BME280;396;52.558;13.188;2023-12-28T05:40:31;100568.13;;;9.20;74.81
829;BME280;396;52.558;13.188;2023-12-28T05:42:57;100559.97;;;9.25;73.89
829;BME280;396;52.558;13.188;2023-12-28T05:45:24;100571.00;;;9.29;74.05
829;BME280;396;52.558;13.188;2023-12-28T05:47:50;100569.69;;;9.26;74.77
829;BME280;396;52.558;13.188;2023-12-28T05:50:17;100569.78;;;9.21;75.27
829;BME280;396;52.558;13.188;2023-12-28T05:52:45;100584.97;;;9.17;76.11
829;BME280;396;52.558;13.188;2023-12-28T05:55:11;100595.75;;;9.17;76.39
829;BME280;396;52.558;13.188;2023-12-28T05:57:38;100587.44;;;9.14;77.29
829;BME280;396;52.558;13.188;2023-12-28T06:00:06;100583.94;;;9.13;77.41
829;BME280;396;52.558;13.188;2023-12-28T06:02:35;100587.44;;;9.14;77.56
829;BME280;396;52.558;13.188;2023-12-28T06:05:01;100590.28;;;9.22;79.11
829;BME280;396;52.558;13.188;2023-12-28T06:07:28;100598.91;;;9.24;80.19
829;BME280;396;52.558;13.188;2023-12-28T06:09:56;100583.69;;;9.28;79.55
829;BME280;396;52.558;13.188;2023-12-28T06:12:23;100593.72;;;9.28;79.83
829;BME280;396;52.558;13.188;2023-12-28T06:14:49;100587.13;;;9.34;79.87
829;BME280;396;52.558;13.188;2023-12-28T06:17:16;100592.84;;;9.32;80.93
829;BME280;396;52.558;13.188;2023-12-28T06:19:44;100598.25;;;9.32;81.28
829;BME280;396;52.558;13.188;2023-12-28T06:22:10;100591.00;;;9.28;82.91
829;BME280;396;52.558;13.188;2023-12-28T06:24:37;100587.72;;;9.31;82.75
829;BME280;396;52.558;13.188;2023-12-28T06:27:06;100594.16;;;9.35;82.18
829;BME280;396;52.558;13.188;2023-12-28T06:29:32;100589.47;;;9.41;82.03
829;BME280;396;52.558;13.188;2023-12-28T06:31:59;100580.88;;;9.39;82.83
829;BME280;396;52.558;13.188;2023-12-28T06:34:26;100586.19;;;9.44;81.65
829;BME280;396;52.558;13.188;2023-12-28T06:36:52;100586.78;;;9.41;82.45
829;BME280;396;52.558;13.188;2023-12-28T06:39:19;100594.97;;;9.35;82.91
829;BME280;396;52.558;13.188;2023-12-28T06:41:47;100599.34;;;9.31;83.36
829;BME280;396;52.558;13.188;2023-12-28T06:44:15;100599.91;;;9.28;83.20
829;BME280;396;52.558;13.188;2023-12-28T06:46:41;100605.41;;;9.23;83.49
829;BME280;396;52.558;13.188;2023-12-28T06:49:08;100600.72;;;9.29;82.62
829;BME280;396;52.558;13.188;2023-12-28T06:51:35;100588.97;;;9.39;81.53
829;BME280;396;52.558;13.188;2023-12-28T06:54:01;100593.28;;;9.40;81.48
829;BME280;396;52.558;13.188;2023-12-28T06:56:28;100599.50;;;9.40;81.51
829;BME280;396;52.558;13.188;2023-12-28T06:58:55;100597.59;;;9.41;81.13
829;BME280;396;52.558;13.188;2023-12-28T07:01:23;100594.44;;;9.33;81.82
829;BME280;396;52.558;13.188;2023-12-28T07:03:49;100600.78;;;9.24;83.02
829;BME280;396;52.558;13.188;2023-12-28T07:06:16;100607.31;;;9.23;82.97
829;BME280;396;52.558;13.188;2023-12-28T07:08:42;100617.25;;;9.27;82.25
829;BME280;396;52.558;13.188;2023-12-28T07:11:09;100615.25;;;9.33;82.06
829;BME280;396;52.558;13.188;2023-12-28T07:13:36;100622.06;;;9.30;82.79
829;BME280;396;52.558;13.188;2023-12-28T07:16:03;100627.47;;;9.30;82.71
829;BME280;396;52.558;13.188;2023-12-28T07:18:34;100621.28;;;9.30;83.09
829;BME280;396;52.558;13.188;2023-12-28T07:21:00;100629.72;;;9.23;83.58
829;BME280;396;52.558;13.188;2023-12-28T07:23:27;100619.22;;;9.22;83.71
829;BME280;396;52.558;13.188;2023-12-28T07:25:54;100635.06;;;9.28;83.84
829;BME280;396;52.558;13.188;2023-12-28T07:28:20;100636.66;;;9.29;83.33
829;BME280;396;52.558;13.188;2023-12-28T07:30:47;100629.94;;;9.27;83.69
829;BME280;396;52.558;13.188;2023-12-28T07:33:13;100629.22;;;9.21;84.48
829;BME280;396;52.558;13.188;2023-12-28T07:35:41;100624.38;;;9.18;85.01
829;BME280;396;52.558;13.188;2023-12-28T07:38:08;100632.97;;;9.25;84.88
829;BME280;396;52.558;13.188;2023-12-28T07:40:35;100636.38;;;9.31;84.32
829;BME280;396;52.558;13.188;2023-12-28T07:43:01;100631.78;;;9.31;84.31
829;BME280;396;52.558;13.188;2023-12-28T07:45:28;100647.53;;;9.24;84.96
829;BME280;396;52.558;13.188;2023-12-28T07:47:56;100647.47;;;9.29;84.42
829;BME280;396;52.558;13.188;2023-12-28T07:50:22;100659.69;;;9.27;85.27
829;BME280;396;52.558;13.188;2023-12-28T07:52:50;100655.22;;;9.17;85.91
829;BME280;396;52.558;13.188;2023-12-28T07:55:17;100659.53;;;9.18;85.85
829;BME280;396;52.558;13.188;2023-12-28T07:57:44;100670.25;;;9.23;85.33
829;BME280;396;52.558;13.188;2023-12-28T08:00:12;100675.03;;;9.31;85.02
829;BME280;396;52.558;13.188;2023-12-28T08:02:38;100667.78;;;9.27;85.41
829;BME280;396;52.558;13.188;2023-12-28T08:05:05;100669.16;;;9.24;85.90
829;BME280;396;52.558;13.188;2023-12-28T08:07:32;100675.16;;;9.21;86.40
829;BME280;396;52.558;13.188;2023-12-28T08:10:00;100681.63;;;9.20;86.44
829;BME280;396;52.558;13.188;2023-12-28T08:12:27;100688.59;;;9.26;85.98
829;BME280;396;52.558;13.188;2023-12-28T08:14:54;100690.69;;;9.34;84.79
829;BME280;396;52.558;13.188;2023-12-28T08:17:21;100703.59;;;9.38;84.73
829;BME280;396;52.558;13.188;2023-12-28T08:19:47;100697.13;;;9.39;84.87
829;BME280;396;52.558;13.188;2023-12-28T08:22:14;100689.00;;;9.39;84.92
829;BME280;396;52.558;13.188;2023-12-28T08:24:40;100694.91;;;9.41;84.88
829;BME280;396;52.558;13.188;2023-12-28T08:27:08;100685.69;;;9.42;84.65
829;BME280;396;52.558;13.188;2023-12-28T08:29:35;100685.19;;;9.40;84.69
829;BME280;396;52.558;13.188;2023-12-28T08:32:02;100683.06;;;9.37;85.15
829;BME280;396;52.558;13.188;2023-12-28T08:34:29;100689.56;;;9.35;84.98
829;BME280;396;52.558;13.188;2023-12-28T08:36:56;100676.00;;;9.41;84.34
829;BME280;396;52.558;13.188;2023-12-28T08:39:23;100685.69;;;9.42;84.03
829;BME280;396;52.558;13.188;2023-12-28T08:41:50;100686.31;;;9.39;84.67
829;BME280;396;52.558;13.188;2023-12-28T08:44:18;100685.47;;;9.38;84.26
829;BME280;396;52.558;13.188;2023-12-28T08:46:44;100700.31;;;9.41;83.91
829;BME280;396;52.558;13.188;2023-12-28T08:49:11;100695.88;;;9.50;83.04
829;BME280;396;52.558;13.188;2023-12-28T08:51:37;100690.47;;;9.50;83.33
829;BME280;396;52.558;13.188;2023-12-28T08:54:04;100685.78;;;9.55;82.32
829;BME280;396;52.558;13.188;2023-12-28T08:56:31;100699.53;;;9.59;81.91
829;BME280;396;52.558;13.188;2023-12-28T08:58:57;100702.16;;;9.64;81.79
829;BME280;396;52.558;13.188;2023-12-28T09:01:25;100692.44;;;9.63;81.81
829;BME280;396;52.558;13.188;2023-12-28T09:03:53;100696.03;;;9.58;81.89
829;BME280;396;52.558;13.188;2023-12-28T09:06:21;100707.16;;;9.57;82.00
829;BME280;396;52.558;13.188;2023-12-28T09:08:49;100711.75;;;9.56;82.58
829;BME280;396;52.558;13.188;2023-12-28T09:11:16;100705.59;;;9.51;83.26
829;BME280;396;52.558;13.188;2023-12-28T09:13:43;100708.59;;;9.49;83.86
829;BME280;396;52.558;13.188;2023-12-28T09:16:11;100712.81;;;9.55;83.01
829;BME280;396;52.558;13.188;2023-12-28T09:18:40;100708.22;;;9.56;83.23
829;BME280;396;52.558;13.188;2023-12-28T09:21:08;100706.03;;;9.58;82.97
829;BME280;396;52.558;13.188;2023-12-28T09:23:36;100699.69;;;9.49;84.18
829;BME280;396;52.558;13.188;2023-12-28T09:26:04;100698.06;;;9.48;84.04
829;BME280;396;52.558;13.188;2023-12-28T09:28:31;100692.06;;;9.51;83.78
829;BME280;396;52.558;13.188;2023-12-28T09:30:58;100695.31;;;9.53;83.61
829;BME280;396;52.558;13.188;2023-12-28T09:33:25;100696.97;;;9.49;83.72
829;BME280;396;52.558;13.188;2023-12-28T09:35:53;100703.41;;;9.53;83.88
829;BME280;396;52.558;13.188;2023-12-28T09:38:19;100699.94;;;9.47;84.07
829;BME280;396;52.558;13.188;2023-12-28T09:40:47;100698.19;;;9.38;85.55
829;BME280;396;52.558;13.188;2023-12-28T09:43:22;100694.91;;;9.41;84.70
829;BME280;396;52.558;13.188;2023-12-28T09:45:49;100683.44;;;9.49;84.43
829;BME280;396;52.558;13.188;2023-12-28T09:48:16;100692.88;;;9.51;84.36
829;BME280;396;52.558;13.188;2023-12-28T09:50:43;100697.25;;;9.47;84.29
829;BME280;396;52.558;13.188;2023-12-28T09:53:11;100691.84;;;9.47;85.10
829;BME280;396;52.558;13.188;2023-12-28T09:55:38;100691.63;;;9.44;85.28
829;BME280;396;52.558;13.188;2023-12-28T09:58:05;100691.00;;;9.52;84.64
829;BME280;396;52.558;13.188;2023-12-28T10:00:32;100686.59;;;9.56;84.25
829;BME280;396;52.558;13.188;2023-12-28T10:02:59;100697.06;;;9.63;83.99
829;BME280;396;52.558;13.188;2023-12-28T10:05:26;100681.94;;;9.62;84.18
829;BME280;396;52.558;13.188;2023-12-28T10:07:55;100688.06;;;9.67;83.66
829;BME280;396;52.558;13.188;2023-12-28T10:10:23;100687.50;;;9.70;83.69
829;BME280;396;52.558;13.188;2023-12-28T10:12:50;100675.25;;;9.73;83.64
829;BME280;396;52.558;13.188;2023-12-28T10:15:18;100676.66;;;9.70;84.24
829;BME280;396;52.558;13.188;2023-12-28T10:17:45;100671.91;;;9.81;83.55
829;BME280;396;52.558;13.188;2023-12-28T10:20:12;100683.97;;;9.89;83.43
829;BME280;396;52.558;13.188;2023-12-28T10:22:38;100686.75;;;9.83;83.59
829;BME280;396;52.558;13.188;2023-12-28T10:25:06;100689.53;;;9.97;82.74
829;BME280;396;52.558;13.188;2023-12-28T10:27:38;100696.75;;;10.02;82.58
829;BME280;396;52.558;13.188;2023-12-28T10:30:08;100687.97;;;10.10;82.23
829;BME280;396;52.558;13.188;2023-12-28T10:32:35;100681.66;;;10.15;82.15
829;BME280;396;52.558;13.188;2023-12-28T10:35:02;100682.03;;;10.08;82.51
829;BME280;396;52.558;13.188;2023-12-28T10:37:31;100673.03;;;10.13;82.12
829;BME280;396;52.558;13.188;2023-12-28T10:39:59;100673.56;;;10.15;82.17
829;BME280;396;52.558;13.188;2023-12-28T10:42:28;100689.13;;;10.23;81.49
829;BME280;396;52.558;13.188;2023-12-28T10:45:02;100699.91;;;10.28;81.26
829;BME280;396;52.558;13.188;2023-12-28T10:47:31;100694.38;;;10.33;81.07
829;BME280;396;52.558;13.188;2023-12-28T10:50:02;100692.00;;;10.31;81.17
829;BME280;396;52.558;13.188;2023-12-28T10:52:30;100692.63;;;10.23;82.85
829;BME280;396;52.558;13.188;2023-12-28T10:55:09;100686.94;;;10.25;82.13
829;BME280;396;52.558;13.188;2023-12-28T10:57:44;100694.88;;;10.35;81.40
829;BME280;396;52.558;13.188;2023-12-28T11:00:19;100701.63;;;10.38;81.28
829;BME280;396;52.558;13.188;2023-12-28T11:02:48;100693.94;;;10.45;80.77
829;BME280;396;52.558;13.188;2023-12-28T11:05:19;100682.47;;;10.48;80.79
829;BME280;396;52.558;13.188;2023-12-28T11:07:47;100690.59;;;10.48;81.04
829;BME280;396;52.558;13.188;2023-12-28T11:10:18;100688.53;;;10.58;80.21
829;BME280;396;52.558;13.188;2023-12-28T11:12:46;100701.69;;;10.65;80.84
829;BME280;396;52.558;13.188;2023-12-28T11:15:17;100689.72;;;10.66;79.71
829;BME280;396;52.558;13.188;2023-12-28T11:17:43;100681.44;;;10.76;78.71
829;BME280;396;52.558;13.188;2023-12-28T11:20:11;100687.25;;;10.83;77.70
829;BME280;396;52.558;13.188;2023-12-28T11:22:39;100680.81;;;10.79;78.67
829;BME280;396;52.558;13.188;2023-12-28T11:25:06;100676.03;;;10.76;78.26
829;BME280;396;52.558;13.188;2023-12-28T11:27:40;100673.00;;;10.78;78.06
829;BME280;396;52.558;13.188;2023-12-28T11:30:10;100668.97;;;10.75;78.45
829;BME280;396;52.558;13.188;2023-12-28T11:32:38;100674.59;;;10.79;79.05
829;BME280;396;52.558;13.188;2023-12-28T11:35:08;100675.22;;;10.90;77.93
829;BME280;396;52.558;13.188;2023-12-28T11:37:36;100671.72;;;11.03;76.68
829;BME280;396;52.558;13.188;2023-12-28T11:40:16;100663.75;;;11.06;77.19
829;BME280;396;52.558;13.188;2023-12-28T11:42:49;100665.25;;;11.26;75.87
829;BME280;396;52.558;13.188;2023-12-28T11:45:17;100661.28;;;11.60;74.83
829;BME280;396;52.558;13.188;2023-12-28T11:47:45;100655.66;;;11.93;71.84
829;BME280;396;52.558;13.188;2023-12-28T11:50:13;100660.63;;;12.13;71.44
829;BME280;396;52.558;13.188;2023-12-28T11:52:40;100640.44;;;12.36;70.16
829;BME280;396;52.558;13.188;2023-12-28T11:55:07;100622.34;;;12.63;68.75
829;BME280;396;52.558;13.188;2023-12-28T11:57:34;100633.47;;;12.84;67.67
829;BME280;396;52.558;13.188;2023-12-28T12:00:02;100617.03;;;12.98;66.44
829;BME280;396;52.558;13.188;2023-12-28T12:02:30;100619.16;;;13.18;67.82
829;BME280;396;52.558;13.188;2023-12-28T12:04:58;100619.22;;;13.44;64.87
829;BME280;396;52.558;13.188;2023-12-28T12:07:27;100612.97;;;13.44;64.00
829;BME280;396;52.558;13.188;2023-12-28T12:09:56;100606.09;;;13.63;63.98
829;BME280;396;52.558;13.188;2023-12-28T12:12:24;100608.97;;;13.76;63.33
829;BME280;396;52.558;13.188;2023-12-28T12:14:50;100609.47;;;13.69;62.60
829;BME280;396;52.558;13.188;2023-12-28T12:17:17;100617.47;;;13.57;62.67
829;BME280;396;52.558;13.188;2023-12-28T12:19:45;100615.19;;;13.59;64.49
829;BME280;396;52.558;13.188;2023-12-28T12:22:16;100618.25;;;13.75;62.38
829;BME280;396;52.558;13.188;2023-12-28T12:24:44;100617.91;;;13.76;61.75
829;BME280;396;52.558;13.188;2023-12-28T12:27:11;100619.22;;;13.79;62.54
829;BME280;396;52.558;13.188;2023-12-28T12:29:38;100619.66;;;13.89;62.49
829;BME280;396;52.558;13.188;2023-12-28T12:32:05;100616.91;;;14.07;62.36
829;BME280;396;52.558;13.188;2023-12-28T12:34:33;100629.09;;;14.18;60.88
829;BME280;396;52.558;13.188;2023-12-28T12:37:00;100625.06;;;14.24;61.18
829;BME280;396;52.558;13.188;2023-12-28T12:39:29;100626.38;;;14.18;60.45
829;BME280;396;52.558;13.188;2023-12-28T12:41:55;100625.94;;;13.90;61.84
829;BME280;396;52.558;13.188;2023-12-28T12:44:23;100617.72;;;13.99;61.64
829;BME280;396;52.558;13.188;2023-12-28T12:46:56;100620.16;;;13.83;61.73
829;BME280;396;52.558;13.188;2023-12-28T12:49:24;100630.09;;;13.79;62.15
829;BME280;396;52.558;13.188;2023-12-28T12:51:50;100620.00;;;13.79;62.83
829;BME280;396;52.558;13.188;2023-12-28T12:54:17;100624.97;;;13.86;61.86
829;BME280;396;52.558;13.188;2023-12-28T12:56:46;100625.59;;;13.92;62.22
829;BME280;396;52.558;13.188;2023-12-28T12:59:13;100611.38;;;13.86;62.26
829;BME280;396;52.558;13.188;2023-12-28T13:01:42;100623.06;;;13.69;62.97
829;BME280;396;52.558;13.188;2023-12-28T13:04:10;100618.06;;;13.36;62.90
829;BME280;396;52.558;13.188;2023-12-28T13:06:36;100613.53;;;13.06;65.12
829;BME280;396;52.558;13.188;2023-12-28T13:09:03;100615.25;;;12.84;66.13
829;BME280;396;52.558;13.188;2023-12-28T13:11:32;100612.91;;;12.60;67.64
829;BME280;396;52.558;13.188;2023-12-28T13:14:00;100605.38;;;12.49;67.64
829;BME280;396;52.558;13.188;2023-12-28T13:16:27;100619.19;;;12.38;68.40
829;BME280;396;52.558;13.188;2023-12-28T13:18:53;100614.19;;;12.23;68.81
829;BME280;396;52.558;13.188;2023-12-28T13:21:20;100619.63;;;12.01;70.58
829;BME280;396;52.558;13.188;2023-12-28T13:23:47;100609.19;;;11.94;70.76
829;BME280;396;52.558;13.188;2023-12-28T13:26:13;100612.97;;;11.84;71.18
829;BME280;396;52.558;13.188;2023-12-28T13:28:40;100614.97;;;11.79;71.74
829;BME280;396;52.558;13.188;2023-12-28T13:31:09;100611.94;;;11.80;71.93